createdAt,value
2022-10-30T00:01:01.031Z,3.89
2022-10-30T00:02:29.047Z,3.93
2022-10-30T00:03:57.320Z,3.89
2022-10-30T00:05:18.762Z,3.86
2022-10-30T00:06:46.729Z,4.34
2022-10-30T00:08:08.761Z,3.64
2022-10-30T00:09:30.036Z,4.15
2022-10-30T00:10:52.015Z,3.81
2022-10-30T00:12:19.577Z,4.14
2022-10-30T00:13:42.552Z,3.96
2022-10-30T00:15:04.083Z,4.08
2022-10-30T00:16:31.245Z,4.19
2022-10-30T00:17:59.886Z,4.28
2022-10-30T00:19:21.377Z,4.09
2022-10-30T00:20:42.555Z,4.36
2022-10-30T00:23:30.616Z,4.31
2022-10-30T00:24:58.553Z,4.22
2022-10-30T00:26:21.012Z,4.11
2022-10-30T00:27:42.276Z,4.26
2022-10-30T00:29:03.691Z,4.16
2022-10-30T00:30:32.069Z,4.06
2022-10-30T00:31:59.493Z,3.95
2022-10-30T00:33:20.472Z,3.94
2022-10-30T00:34:41.366Z,4.23
2022-10-30T00:36:03.102Z,5.07
2022-10-30T00:37:24.175Z,6.56
2022-10-30T00:38:45.562Z,5.72
2022-10-30T00:40:07.485Z,5.61
2022-10-30T00:41:28.902Z,4.39
2022-10-30T00:42:50.287Z,4.19
2022-10-30T00:44:37.423Z,4.44
2022-10-30T00:47:26.285Z,2.91
2022-10-30T00:48:50.859Z,3.72
2022-10-30T00:50:15.771Z,4.91
2022-10-30T00:51:38.645Z,4.31
2022-10-30T00:53:05.159Z,4.15
2022-10-30T00:54:26.942Z,4.19
2022-10-30T00:57:04.479Z,4.21
2022-10-30T00:58:38.173Z,4.21
2022-10-30T00:59:59.282Z,4.21
2022-10-30T01:01:22.959Z,4.87
2022-10-30T01:02:44.397Z,4.07
2022-10-30T01:04:05.976Z,3.96
2022-10-30T01:05:27.397Z,4.04
2022-10-30T01:06:49.447Z,4.38
2022-10-30T01:08:10.921Z,4.52
2022-10-30T01:09:32.098Z,4.30
2022-10-30T01:10:53.356Z,4.54
2022-10-30T01:12:15.173Z,4.56
2022-10-30T01:13:36.411Z,4.20
2022-10-30T01:14:57.857Z,4.47
2022-10-30T01:16:29.299Z,4.88
2022-10-30T01:18:06.542Z,4.40
2022-10-30T01:19:40.155Z,4.72
2022-10-30T01:22:56.937Z,4.37
2022-10-30T01:24:46.277Z,4.79
2022-10-30T01:26:20.677Z,4.43
2022-10-30T01:29:07.917Z,3.39
2022-10-30T01:32:29.156Z,4.33
2022-10-30T01:33:58.178Z,4.21
2022-10-30T01:36:40.841Z,4.56
2022-10-30T01:38:05.341Z,4.30
2022-10-30T01:39:28.516Z,4.29
2022-10-30T01:43:43.247Z,4.15
2022-10-30T01:45:05.482Z,4.55
2022-10-30T01:47:50.101Z,3.46
2022-10-30T01:49:30.353Z,4.29
2022-10-30T01:51:07.570Z,4.17
2022-10-30T01:52:48.822Z,4.74
2022-10-30T01:54:14.159Z,4.91
2022-10-30T01:55:56.218Z,4.09
2022-10-30T01:57:30.269Z,4.37
2022-10-30T02:00:21.233Z,4.42
2022-10-30T02:01:42.851Z,4.73
2022-10-30T02:03:04.117Z,4.86
2022-10-30T02:04:26.640Z,4.48
2022-10-30T02:05:50.140Z,4.71
2022-10-30T02:07:11.651Z,4.86
2022-10-30T02:08:33.030Z,4.64
2022-10-30T02:09:54.317Z,4.72
2022-10-30T02:11:15.810Z,4.94
2022-10-30T02:12:43.853Z,4.81
2022-10-30T02:14:12.663Z,5.19
2022-10-30T02:15:34.106Z,4.72
2022-10-30T02:17:10.537Z,4.56
2022-10-30T02:18:31.981Z,4.78
2022-10-30T02:20:00.097Z,4.78
2022-10-30T02:21:21.410Z,4.83
2022-10-30T02:22:42.931Z,4.54
2022-10-30T02:24:11.536Z,4.60
2022-10-30T02:25:35.532Z,4.61
2022-10-30T02:26:57.053Z,4.77
2022-10-30T02:28:24.789Z,4.84
2022-10-30T02:29:47.162Z,4.94
2022-10-30T02:31:15.521Z,4.81
2022-10-30T02:32:43.128Z,4.64
2022-10-30T02:34:04.695Z,4.48
2022-10-30T02:35:27.203Z,4.91
2022-10-30T02:36:55.380Z,4.66
2022-10-30T02:38:17.623Z,5.03
2022-10-30T02:39:39.959Z,4.83
2022-10-30T02:41:00.997Z,4.54
2022-10-30T02:42:28.200Z,4.84
2022-10-30T02:43:52.361Z,4.46
2022-10-30T02:45:13.923Z,4.48
2022-10-30T02:46:35.268Z,4.52
2022-10-30T02:49:31.603Z,4.86
2022-10-30T02:50:56.742Z,4.93
2022-10-30T02:52:24.625Z,4.39
2022-10-30T02:53:45.953Z,4.82
2022-10-30T02:55:07.758Z,4.52
2022-10-30T02:56:28.741Z,4.23
2022-10-30T02:57:49.932Z,4.47
2022-10-30T02:59:11.469Z,4.41
2022-10-30T03:00:32.607Z,4.78
2022-10-30T03:01:54.158Z,4.68
2022-10-30T03:03:17.577Z,4.43
2022-10-30T03:04:40.095Z,4.63
2022-10-30T03:06:02.571Z,4.43
2022-10-30T03:07:23.801Z,4.38
2022-10-30T03:08:45.037Z,4.63
2022-10-30T03:10:06.801Z,4.62
2022-10-30T03:11:27.943Z,4.51
2022-10-30T03:12:49.177Z,4.74
2022-10-30T03:14:10.418Z,4.30
2022-10-30T03:15:32.609Z,4.29
2022-10-30T03:16:53.983Z,4.51
2022-10-30T03:18:16.179Z,4.57
2022-10-30T03:19:37.763Z,4.81
2022-10-30T03:21:00.106Z,4.79
2022-10-30T03:22:22.774Z,5.02
2022-10-30T03:23:44.189Z,4.87
2022-10-30T03:25:06.482Z,4.29
2022-10-30T03:26:28.078Z,5.12
2022-10-30T03:27:49.656Z,5.24
2022-10-30T03:29:11.357Z,5.04
2022-10-30T03:30:33.078Z,4.67
2022-10-30T03:31:54.348Z,4.54
2022-10-30T03:33:15.908Z,5.08
2022-10-30T03:34:37.085Z,5.07
2022-10-30T03:35:58.411Z,4.79
2022-10-30T03:37:19.679Z,4.58
2022-10-30T03:38:41.313Z,4.74
2022-10-30T03:40:03.791Z,4.73
2022-10-30T03:41:24.752Z,5.07
2022-10-30T03:42:46.081Z,4.73
2022-10-30T03:44:07.509Z,4.57
2022-10-30T03:45:29.141Z,4.93
2022-10-30T03:46:51.027Z,4.78
2022-10-30T03:48:12.040Z,4.47
2022-10-30T03:49:33.323Z,4.93
2022-10-30T03:50:55.640Z,4.42
2022-10-30T03:52:17.109Z,4.28
2022-10-30T03:53:38.389Z,4.79
2022-10-30T03:54:59.531Z,5.09
2022-10-30T03:56:21.676Z,4.37
2022-10-30T03:57:43.066Z,5.03
2022-10-30T03:59:04.200Z,5.17
2022-10-30T04:00:26.285Z,4.80
2022-10-30T04:01:48.363Z,4.90
2022-10-30T04:03:10.206Z,4.59
2022-10-30T04:04:31.437Z,5.04
2022-10-30T04:05:53.036Z,5.13
2022-10-30T04:07:14.555Z,5.22
2022-10-30T04:08:35.907Z,4.51
2022-10-30T04:09:57.448Z,4.97
2022-10-30T04:11:18.988Z,5.08
2022-10-30T04:12:40.926Z,5.26
2022-10-30T04:14:02.356Z,5.08
2022-10-30T04:15:23.782Z,5.26
2022-10-30T04:16:46.851Z,4.98
2022-10-30T04:18:10.276Z,5.14
2022-10-30T04:19:32.244Z,5.15
2022-10-30T04:20:55.330Z,5.06
2022-10-30T04:22:16.732Z,4.76
2022-10-30T04:23:38.337Z,5.27
2022-10-30T04:24:59.651Z,4.93
2022-10-30T04:26:20.687Z,5.14
2022-10-30T04:27:42.589Z,6.97
2022-10-30T04:29:03.839Z,6.68
2022-10-30T04:30:25.217Z,5.70
2022-10-30T04:31:46.577Z,5.43
2022-10-30T04:33:12.673Z,5.31
2022-10-30T04:34:33.827Z,4.92
2022-10-30T04:35:54.961Z,5.20
2022-10-30T04:37:16.378Z,5.09
2022-10-30T04:38:37.475Z,5.16
2022-10-30T04:39:58.854Z,5.64
2022-10-30T04:41:20.032Z,5.53
2022-10-30T04:42:41.315Z,5.41
2022-10-30T04:44:03.537Z,5.38
2022-10-30T04:45:24.878Z,5.26
2022-10-30T04:46:46.352Z,5.53
2022-10-30T04:49:20.848Z,5.59
2022-10-30T04:50:42.431Z,5.30
2022-10-30T04:52:03.459Z,4.86
2022-10-30T04:53:25.258Z,5.55
2022-10-30T04:54:46.688Z,5.61
2022-10-30T04:56:08.830Z,5.56
2022-10-30T04:57:30.199Z,5.24
2022-10-30T04:58:51.754Z,5.60
2022-10-30T05:00:15.291Z,5.38
2022-10-30T05:01:36.704Z,5.13
2022-10-30T05:02:59.116Z,5.61
2022-10-30T05:04:20.654Z,5.76
2022-10-30T05:05:42.087Z,5.73
2022-10-30T05:07:04.636Z,5.91
2022-10-30T05:08:26.179Z,5.68
2022-10-30T05:09:47.972Z,5.73
2022-10-30T05:11:09.590Z,5.33
2022-10-30T05:12:30.936Z,5.81
2022-10-30T05:13:53.206Z,5.54
2022-10-30T05:15:14.862Z,5.43
2022-10-30T05:16:37.478Z,5.65
2022-10-30T05:18:02.262Z,5.37
2022-10-30T05:19:24.269Z,6.16
2022-10-30T05:20:46.885Z,5.43
2022-10-30T05:23:30.560Z,5.31
2022-10-30T05:24:51.620Z,5.63
2022-10-30T05:26:13.539Z,5.21
2022-10-30T05:27:34.805Z,5.38
2022-10-30T05:28:57.206Z,5.59
2022-10-30T05:30:18.543Z,6.01
2022-10-30T05:31:40.343Z,5.89
2022-10-30T05:33:05.242Z,6.22
2022-10-30T05:34:26.494Z,5.85
2022-10-30T05:35:47.526Z,6.08
2022-10-30T05:37:10.257Z,6.52
2022-10-30T05:38:31.540Z,5.78
2022-10-30T05:39:53.187Z,6.38
2022-10-30T05:41:14.481Z,6.44
2022-10-30T05:42:36.021Z,6.19
2022-10-30T05:43:59.437Z,6.49
2022-10-30T05:45:21.105Z,6.57
2022-10-30T05:47:59.685Z,7.10
2022-10-30T05:49:21.116Z,6.66
2022-10-30T05:50:42.441Z,6.63
2022-10-30T05:52:07.055Z,6.46
2022-10-30T05:53:30.786Z,6.56
2022-10-30T05:54:52.266Z,6.78
2022-10-30T05:56:15.493Z,7.13
2022-10-30T05:57:36.866Z,6.52
2022-10-30T05:58:57.949Z,7.16
2022-10-30T06:00:19.730Z,6.55
2022-10-30T06:01:40.999Z,7.03
2022-10-30T06:03:05.105Z,7.34
2022-10-30T06:04:27.226Z,7.04
2022-10-30T06:05:48.623Z,6.63
2022-10-30T06:07:11.473Z,7.13
2022-10-30T06:08:35.397Z,6.85
2022-10-30T06:09:56.877Z,6.58
2022-10-30T06:11:18.158Z,6.39
2022-10-30T06:12:41.876Z,6.82
2022-10-30T06:14:03.223Z,6.30
2022-10-30T06:15:24.572Z,6.69
2022-10-30T06:16:46.013Z,6.82
2022-10-30T06:18:07.306Z,6.42
2022-10-30T06:19:28.889Z,6.62
2022-10-30T06:20:50.636Z,6.15
2022-10-30T06:22:11.642Z,6.35
2022-10-30T06:23:35.743Z,6.19
2022-10-30T06:24:57.144Z,6.17
2022-10-30T06:26:19.451Z,5.06
2022-10-30T06:27:41.132Z,6.44
2022-10-30T06:29:02.394Z,6.66
2022-10-30T06:30:26.446Z,5.91
2022-10-30T06:31:47.932Z,6.18
2022-10-30T06:33:09.415Z,5.86
2022-10-30T06:34:31.732Z,5.90
2022-10-30T06:37:14.482Z,5.98
2022-10-30T06:38:36.837Z,5.34
2022-10-30T06:39:58.605Z,5.88
2022-10-30T06:41:19.875Z,5.75
2022-10-30T06:43:57.844Z,5.79
2022-10-30T06:45:21.077Z,5.67
2022-10-30T06:46:43.490Z,6.34
2022-10-30T06:48:06.339Z,5.71
2022-10-30T06:49:32.534Z,5.33
2022-10-30T06:52:07.137Z,6.74
2022-10-30T06:53:28.767Z,6.11
2022-10-30T06:54:50.520Z,5.89
2022-10-30T06:56:13.115Z,5.87
2022-10-30T06:57:36.143Z,5.56
2022-10-30T06:58:57.798Z,5.59
2022-10-30T07:00:19.713Z,5.31
2022-10-30T07:01:42.519Z,5.68
2022-10-30T07:03:03.771Z,5.70
2022-10-30T07:04:25.289Z,5.11
2022-10-30T07:05:46.751Z,5.09
2022-10-30T07:07:08.467Z,5.76
2022-10-30T07:08:29.942Z,5.73
2022-10-30T07:09:51.163Z,5.99
2022-10-30T07:11:12.636Z,5.62
2022-10-30T07:12:34.302Z,6.57
2022-10-30T07:13:56.794Z,6.09
2022-10-30T07:15:18.202Z,6.17
2022-10-30T07:16:39.900Z,6.21
2022-10-30T07:18:02.354Z,5.44
2022-10-30T07:19:23.936Z,5.44
2022-10-30T07:20:46.177Z,6.13
2022-10-30T07:22:07.406Z,5.33
2022-10-30T07:23:28.776Z,5.38
2022-10-30T07:24:52.553Z,5.20
2022-10-30T07:26:13.961Z,5.10
2022-10-30T07:29:00.721Z,5.51
2022-10-30T07:30:23.681Z,5.31
2022-10-30T07:31:57.760Z,5.34
2022-10-30T07:33:10.137Z,5.17
2022-10-30T07:34:31.240Z,5.21
2022-10-30T07:35:53.789Z,5.44
2022-10-30T07:37:15.137Z,5.56
2022-10-30T07:38:36.791Z,5.77
2022-10-30T07:39:57.911Z,6.12
2022-10-30T07:41:20.615Z,6.41
2022-10-30T07:42:41.708Z,6.48
2022-10-30T07:44:03.499Z,8.14
2022-10-30T07:45:25.865Z,7.96
2022-10-30T07:46:47.072Z,7.93
2022-10-30T07:48:08.617Z,7.56
2022-10-30T07:49:29.808Z,8.48
2022-10-30T07:51:49.800Z,7.47
2022-10-30T07:53:11.262Z,6.31
2022-10-30T07:54:32.621Z,5.63
2022-10-30T07:55:53.809Z,5.36
2022-10-30T07:57:15.193Z,5.65
2022-10-30T07:58:41.246Z,5.78
2022-10-30T08:00:04.030Z,6.16
2022-10-30T08:01:23.355Z,6.59
2022-10-30T08:02:49.967Z,5.55
2022-10-30T08:04:11.494Z,5.81
2022-10-30T08:05:32.860Z,6.57
2022-10-30T08:06:54.224Z,6.10
2022-10-30T08:08:15.601Z,5.78
2022-10-30T08:09:36.918Z,5.59
2022-10-30T08:10:58.253Z,5.97
2022-10-30T08:12:19.477Z,6.52
2022-10-30T08:13:40.959Z,6.54
2022-10-30T08:15:02.713Z,6.15
2022-10-30T08:16:24.061Z,6.45
2022-10-30T08:17:48.503Z,6.87
2022-10-30T08:19:09.842Z,6.63
2022-10-30T08:20:31.279Z,7.12
2022-10-30T08:21:56.096Z,7.04
2022-10-30T08:24:36.476Z,5.83
2022-10-30T08:25:58.165Z,5.67
2022-10-30T08:27:20.132Z,5.23
2022-10-30T08:28:41.123Z,6.56
2022-10-30T08:30:02.224Z,5.98
2022-10-30T08:31:25.709Z,5.84
2022-10-30T08:32:46.989Z,6.21
2022-10-30T08:34:08.632Z,5.57
2022-10-30T08:35:30.110Z,6.04
2022-10-30T08:36:51.416Z,5.81
2022-10-30T08:38:12.450Z,5.94
2022-10-30T08:39:33.953Z,5.49
2022-10-30T08:40:55.095Z,5.81
2022-10-30T08:42:16.279Z,6.26
2022-10-30T08:43:38.562Z,5.98
2022-10-30T08:44:59.988Z,6.95
2022-10-30T08:46:21.593Z,5.79
2022-10-30T08:47:42.757Z,5.96
2022-10-30T08:49:04.326Z,5.95
2022-10-30T08:50:26.688Z,6.19
2022-10-30T08:51:48.604Z,6.48
2022-10-30T08:53:11.148Z,6.51
2022-10-30T08:54:32.432Z,6.42
2022-10-30T08:55:54.156Z,7.21
2022-10-30T08:57:15.153Z,6.08
2022-10-30T08:58:36.643Z,6.51
2022-10-30T08:59:57.865Z,6.74
2022-10-30T09:01:18.884Z,5.99
2022-10-30T09:02:40.372Z,5.95
2022-10-30T09:04:01.896Z,6.69
2022-10-30T09:05:23.186Z,5.94
2022-10-30T09:06:44.612Z,6.02
2022-10-30T09:08:06.132Z,5.77
2022-10-30T09:09:27.392Z,6.17
2022-10-30T09:10:51.821Z,6.14
2022-10-30T09:12:13.030Z,5.95
2022-10-30T09:13:34.816Z,5.75
2022-10-30T09:14:57.930Z,6.35
2022-10-30T09:16:19.477Z,6.06
2022-10-30T09:17:40.879Z,5.88
2022-10-30T09:19:02.287Z,5.92
2022-10-30T09:20:24.098Z,5.14
2022-10-30T09:21:45.242Z,8.41
2022-10-30T09:23:06.300Z,5.23
2022-10-30T09:24:27.959Z,4.58
2022-10-30T09:25:50.264Z,4.41
2022-10-30T09:27:11.634Z,5.16
2022-10-30T09:28:33.057Z,4.35
2022-10-30T09:29:54.125Z,4.56
2022-10-30T09:31:15.142Z,3.86
2022-10-30T09:32:37.751Z,4.06
2022-10-30T09:33:59.133Z,4.11
2022-10-30T09:35:20.729Z,4.11
2022-10-30T09:36:42.029Z,3.89
2022-10-30T09:38:03.535Z,4.35
2022-10-30T09:39:24.496Z,4.00
2022-10-30T09:42:35.688Z,4.22
2022-10-30T09:44:24.796Z,4.45
2022-10-30T09:45:50.212Z,5.27
2022-10-30T09:51:08.665Z,4.04
2022-10-30T09:52:40.675Z,4.17
2022-10-30T09:54:11.265Z,4.42
2022-10-30T09:55:36.758Z,4.19
2022-10-30T09:57:32.270Z,4.50
2022-10-30T09:59:09.468Z,4.65
2022-10-30T10:00:38.807Z,4.31
2022-10-30T10:02:20.947Z,4.65
2022-10-30T10:04:01.521Z,4.64
2022-10-30T10:05:25.844Z,4.04
2022-10-30T10:06:49.161Z,4.29
2022-10-30T10:09:24.822Z,4.31
2022-10-30T10:12:11.104Z,4.27
2022-10-30T10:13:54.389Z,4.39
2022-10-30T10:15:46.775Z,4.36
2022-10-30T10:17:11.530Z,4.08
2022-10-30T10:18:39.354Z,3.89
2022-10-30T10:20:01.461Z,4.26
2022-10-30T10:21:26.856Z,4.07
2022-10-30T10:22:48.665Z,3.81
2022-10-30T10:25:27.871Z,3.93
2022-10-30T10:27:14.534Z,4.57
2022-10-30T10:30:26.554Z,5.01
2022-10-30T10:32:03.935Z,4.52
2022-10-30T10:34:00.327Z,4.71
2022-10-30T10:35:31.007Z,4.33
2022-10-30T10:37:03.656Z,4.48
2022-10-30T10:38:49.356Z,4.94
2022-10-30T10:40:46.852Z,4.63
2022-10-30T10:42:20.676Z,5.42
2022-10-30T10:44:00.781Z,4.91
2022-10-30T10:45:37.083Z,4.54
2022-10-30T10:47:36.632Z,4.87
2022-10-30T10:50:32.031Z,6.78
2022-10-30T10:52:06.196Z,5.04
2022-10-30T10:53:30.909Z,5.34
2022-10-30T10:54:57.688Z,5.37
2022-10-30T10:56:19.020Z,5.85
2022-10-30T10:57:40.400Z,4.90
2022-10-30T11:00:20.806Z,4.49
2022-10-30T11:03:04.855Z,5.01
2022-10-30T11:04:41.974Z,5.51
2022-10-30T11:06:23.943Z,5.24
2022-10-30T11:07:47.515Z,5.24
2022-10-30T11:09:12.719Z,5.53
2022-10-30T11:10:33.760Z,5.83
2022-10-30T11:11:55.136Z,5.10
2022-10-30T11:13:16.344Z,5.79
2022-10-30T11:14:37.917Z,5.41
2022-10-30T11:16:15.151Z,4.66
2022-10-30T11:18:56.947Z,5.19
2022-10-30T11:20:23.870Z,4.89
2022-10-30T11:21:53.313Z,4.83
2022-10-30T11:23:35.050Z,4.75
2022-10-30T11:24:56.213Z,4.67
2022-10-30T11:26:21.863Z,5.13
2022-10-30T11:27:44.372Z,4.46
2022-10-30T11:29:14.541Z,4.80
2022-10-30T11:30:35.868Z,4.28
2022-10-30T11:32:01.706Z,4.43
2022-10-30T11:33:26.900Z,4.36
2022-10-30T11:36:16.086Z,4.24
2022-10-30T11:37:38.698Z,4.27
2022-10-30T11:39:03.943Z,4.25
2022-10-30T11:40:25.153Z,4.53
2022-10-30T11:42:00.069Z,3.89
2022-10-30T11:43:23.207Z,4.31
2022-10-30T11:44:50.297Z,4.37
2022-10-30T11:46:15.563Z,4.31
2022-10-30T11:48:52.227Z,5.56
2022-10-30T11:51:43.867Z,4.57
2022-10-30T11:53:14.623Z,4.54
2022-10-30T11:56:19.773Z,3.37
2022-10-30T11:57:43.600Z,4.22
2022-10-30T11:59:04.988Z,4.14
2022-10-30T12:00:28.847Z,4.83
2022-10-30T12:02:05.295Z,4.57
2022-10-30T12:03:36.336Z,4.71
2022-10-30T12:05:01.035Z,4.64
2022-10-30T12:06:26.252Z,4.56
2022-10-30T12:07:47.936Z,4.82
2022-10-30T12:09:22.998Z,4.71
2022-10-30T12:10:59.007Z,4.49
2022-10-30T12:12:22.567Z,4.57
2022-10-30T12:15:25.370Z,4.62
2022-10-30T12:16:50.618Z,4.45
2022-10-30T12:18:20.131Z,4.47
2022-10-30T12:21:02.707Z,3.62
2022-10-30T12:22:29.793Z,4.45
2022-10-30T12:23:54.496Z,4.75
2022-10-30T12:25:28.004Z,5.59
2022-10-30T12:26:51.297Z,4.82
2022-10-30T12:28:14.064Z,4.98
2022-10-30T12:30:06.703Z,4.53
2022-10-30T12:31:09.881Z,4.92
2022-10-30T12:34:12.587Z,3.33
2022-10-30T15:14:53.849Z,4.52
2022-10-30T15:16:08.525Z,4.72
2022-10-30T15:17:35.899Z,4.09
2022-10-30T15:19:07.532Z,4.11
2022-10-30T15:20:30.915Z,3.64
2022-10-30T15:23:26.922Z,3.45
2022-10-30T15:24:49.596Z,5.12
2022-10-30T15:26:22.211Z,4.05
2022-10-30T15:27:44.036Z,4.36
2022-10-30T15:29:05.173Z,4.82
2022-10-30T15:30:27.872Z,5.02
2022-10-30T15:33:20.217Z,5.43
2022-10-30T15:34:43.385Z,4.04
2022-10-30T15:37:26.235Z,3.55
2022-10-30T15:40:25.089Z,4.19
2022-10-30T15:41:57.526Z,5.42
2022-10-30T15:43:18.532Z,5.90
2022-10-30T15:44:42.648Z,4.62
2022-10-30T15:46:08.772Z,3.91
2022-10-30T15:47:29.979Z,4.57
2022-10-30T15:48:51.464Z,4.15
2022-10-30T15:50:13.167Z,3.98
2022-10-30T15:51:34.231Z,3.98
2022-10-30T15:52:56.204Z,3.71
2022-10-30T15:54:18.514Z,3.59
2022-10-30T15:57:36.494Z,3.76
2022-10-30T15:58:21.397Z,3.62
2022-10-30T15:59:42.587Z,3.42
2022-10-30T16:01:04.066Z,3.74
2022-10-30T16:02:25.833Z,3.83
2022-10-30T16:03:52.483Z,4.05
2022-10-30T16:06:38.521Z,3.88
2022-10-30T16:08:00.917Z,4.53
2022-10-30T16:09:21.930Z,4.42
2022-10-30T16:10:45.458Z,5.16
2022-10-30T16:12:11.808Z,4.63
2022-10-30T16:13:31.741Z,5.30
2022-10-30T16:14:56.317Z,5.48
2022-10-30T16:16:24.479Z,4.61
2022-10-30T16:17:46.092Z,4.52
2022-10-30T16:19:07.647Z,4.24
2022-10-30T16:20:28.888Z,4.63
2022-10-30T16:21:50.575Z,4.81
2022-10-30T16:23:12.565Z,4.09
2022-10-30T16:24:34.071Z,3.78
2022-10-30T16:25:56.560Z,3.62
2022-10-30T16:27:19.676Z,3.73
2022-10-30T16:28:41.413Z,7.29
2022-10-30T16:30:02.742Z,3.76
2022-10-30T16:31:25.683Z,3.90
2022-10-30T16:32:52.918Z,4.18
2022-10-30T16:34:20.436Z,4.01
2022-10-30T16:35:42.250Z,3.71
2022-10-30T16:37:04.338Z,3.87
2022-10-30T16:38:27.349Z,3.73
2022-10-30T16:41:10.737Z,3.67
2022-10-30T16:42:32.824Z,3.57
2022-10-30T16:44:21.507Z,3.78
2022-10-30T16:45:44.907Z,4.12
2022-10-30T16:47:22.074Z,3.61
2022-10-30T16:48:46.492Z,4.27
2022-10-30T16:50:11.556Z,3.84
2022-10-30T16:51:33.637Z,3.68
2022-10-30T16:52:55.414Z,3.31
2022-10-30T16:55:38.438Z,5.47
2022-10-30T16:57:03.575Z,5.54
2022-10-30T16:58:27.312Z,4.99
2022-10-30T16:59:48.973Z,4.49
2022-10-30T17:01:10.265Z,4.71
2022-10-30T17:02:33.103Z,4.74
2022-10-30T17:03:54.835Z,5.20
2022-10-30T17:05:30.619Z,5.41
2022-10-30T17:06:56.045Z,8.87
2022-10-30T17:08:21.127Z,5.22
2022-10-30T17:09:43.378Z,4.74
2022-10-30T17:11:16.077Z,4.60
2022-10-30T17:12:37.061Z,5.31
2022-10-30T17:13:58.921Z,5.21
2022-10-30T17:15:20.414Z,4.63
2022-10-30T17:16:41.605Z,5.37
2022-10-30T17:18:08.205Z,5.01
2022-10-30T17:19:33.448Z,5.59
2022-10-30T17:21:04.679Z,3.94
2022-10-30T17:22:26.575Z,3.68
2022-10-30T17:23:56.054Z,3.85
2022-10-30T17:25:36.151Z,4.09
2022-10-30T17:27:00.153Z,3.45
2022-10-30T17:29:42.059Z,3.56
2022-10-30T17:31:22.103Z,3.62
2022-10-30T17:32:43.812Z,3.61
2022-10-30T17:34:19.060Z,3.63
2022-10-30T17:35:40.236Z,3.77
2022-10-30T17:37:01.733Z,3.93
2022-10-30T17:38:23.073Z,4.37
2022-10-30T17:39:44.144Z,3.58
2022-10-30T17:41:05.714Z,4.96
2022-10-30T17:42:27.011Z,5.48
2022-10-30T17:43:50.472Z,5.02
2022-10-30T17:45:12.363Z,4.54
2022-10-30T17:46:33.736Z,4.16
2022-10-30T17:47:55.486Z,3.96
2022-10-30T17:50:37.516Z,5.77
2022-10-30T17:51:59.198Z,4.52
2022-10-30T17:53:22.253Z,4.19
2022-10-30T17:54:43.754Z,4.67
2022-10-30T17:56:14.021Z,4.90
2022-10-30T17:57:35.166Z,5.94
2022-10-30T17:58:56.680Z,5.94
2022-10-30T18:11:45.188Z,8.91
2022-10-30T18:14:19.553Z,5.97
2022-10-30T18:15:43.873Z,5.59
2022-10-30T18:17:05.589Z,5.18
2022-10-30T18:18:27.362Z,5.22
2022-10-30T18:19:48.975Z,4.95
2022-10-30T18:21:14.094Z,4.83
2022-10-30T18:22:35.613Z,5.13
2022-10-30T18:23:57.673Z,4.59
2022-10-30T18:25:24.229Z,4.91
2022-10-30T18:26:46.317Z,5.08
2022-10-30T18:28:07.795Z,4.63
2022-10-30T18:29:29.315Z,5.57
2022-10-30T18:30:52.608Z,5.18
2022-10-30T18:32:13.913Z,5.28
2022-10-30T18:33:35.462Z,4.66
2022-10-30T18:34:56.978Z,4.41
2022-10-30T18:36:20.017Z,4.96
2022-10-30T18:37:41.316Z,4.98
2022-10-30T18:39:02.803Z,4.56
2022-10-30T18:40:24.399Z,4.69
2022-10-30T18:41:45.738Z,5.15
2022-10-30T18:43:09.610Z,4.74
2022-10-30T18:44:31.354Z,5.35
2022-10-30T18:45:53.995Z,4.60
2022-10-30T18:47:15.260Z,4.71
2022-10-30T18:48:37.193Z,5.24
2022-10-30T18:50:00.426Z,5.57
2022-10-30T18:51:23.183Z,4.92
2022-10-30T18:52:44.750Z,5.16
2022-10-30T18:54:15.512Z,5.83
2022-10-30T18:55:40.455Z,5.47
2022-10-30T18:57:01.990Z,5.25
2022-10-30T18:58:23.606Z,4.97
2022-10-30T18:59:45.214Z,5.26
2022-10-30T19:01:11.943Z,5.24
2022-10-30T19:03:50.570Z,5.28
2022-10-30T19:05:24.716Z,5.50
2022-10-30T19:06:46.068Z,6.14
2022-10-30T19:08:07.416Z,6.69
2022-10-30T19:09:28.358Z,5.71
2022-10-30T19:10:49.891Z,6.17
2022-10-30T19:12:11.675Z,5.73
2022-10-30T19:13:33.469Z,6.03
2022-10-30T19:14:54.766Z,5.83
2022-10-30T19:16:17.758Z,6.22
2022-10-30T19:17:38.829Z,6.52
2022-10-30T19:19:01.234Z,6.08
2022-10-30T19:20:37.603Z,6.13
2022-10-30T19:21:45.982Z,6.63
2022-10-30T19:24:31.258Z,6.47
2022-10-30T19:25:54.661Z,6.91
2022-10-30T19:28:37.123Z,6.24
2022-10-30T19:29:58.681Z,6.72
2022-10-30T19:31:19.831Z,6.69
2022-10-30T19:32:41.103Z,6.92
2022-10-30T19:34:02.454Z,7.14
2022-10-30T19:35:26.053Z,6.73
2022-10-30T19:36:47.716Z,7.46
2022-10-30T19:38:10.280Z,6.70
2022-10-30T19:39:31.615Z,6.94
2022-10-30T19:40:53.538Z,7.19
2022-10-30T19:42:16.428Z,6.91
2022-10-30T19:43:39.307Z,6.72
2022-10-30T19:45:00.947Z,6.82
2022-10-30T19:46:22.303Z,7.11
2022-10-30T19:47:43.724Z,7.02
2022-10-30T19:49:16.388Z,6.94
2022-10-30T19:50:38.655Z,6.42
2022-10-30T19:52:02.524Z,6.94
2022-10-30T19:53:23.975Z,6.52
2022-10-30T19:54:45.371Z,6.87
2022-10-30T19:56:09.622Z,6.66
2022-10-30T19:57:30.956Z,6.73
2022-10-30T19:58:52.288Z,7.06
2022-10-30T20:00:16.716Z,6.49
2022-10-30T20:01:37.988Z,6.66
2022-10-30T20:02:59.571Z,6.73
2022-10-30T20:04:20.984Z,6.66
2022-10-30T20:05:44.470Z,6.44
2022-10-30T20:07:06.076Z,6.93
2022-10-30T20:08:27.203Z,6.71
2022-10-30T20:09:50.436Z,6.57
2022-10-30T20:11:11.849Z,7.10
2022-10-30T20:12:33.098Z,6.39
2022-10-30T20:13:55.613Z,6.97
2022-10-30T20:15:21.021Z,6.13
2022-10-30T20:16:42.446Z,6.29
2022-10-30T20:19:32.749Z,5.02
2022-10-30T20:20:56.587Z,6.45
2022-10-30T20:22:17.909Z,7.06
2022-10-30T20:23:39.199Z,6.36
2022-10-30T20:25:08.882Z,7.12
2022-10-30T20:26:30.291Z,6.77
2022-10-30T20:28:04.003Z,6.76
2022-10-30T20:29:25.167Z,7.02
2022-10-30T20:30:47.947Z,5.19
2022-10-30T20:32:09.366Z,6.89
2022-10-30T20:33:30.758Z,6.44
2022-10-30T20:34:52.348Z,7.07
2022-10-30T20:36:15.499Z,6.86
2022-10-30T20:37:36.837Z,6.74
2022-10-30T20:38:58.220Z,7.27
2022-10-30T20:40:21.021Z,6.63
2022-10-30T20:41:42.392Z,7.87
2022-10-30T20:43:04.246Z,7.94
2022-10-30T20:44:25.427Z,8.64
2022-10-30T20:45:48.148Z,7.34
2022-10-30T20:48:30.472Z,6.57
2022-10-30T20:49:51.621Z,6.63
2022-10-30T20:51:12.841Z,6.66
2022-10-30T20:52:34.179Z,6.31
2022-10-30T20:53:56.636Z,6.55
2022-10-30T20:55:18.629Z,6.69
2022-10-30T20:56:39.840Z,6.76
2022-10-30T20:58:02.040Z,6.76
2022-10-30T20:59:25.183Z,6.77
2022-10-30T21:00:50.091Z,6.63
2022-10-30T21:02:12.459Z,6.91
2022-10-30T21:03:34.629Z,6.28
2022-10-30T21:04:56.120Z,6.94
2022-10-30T21:06:19.635Z,6.74
2022-10-30T21:07:41.970Z,6.94
2022-10-30T21:09:03.297Z,5.69
2022-10-30T21:11:48.716Z,6.98
2022-10-30T21:13:10.951Z,6.72
2022-10-30T21:14:33.348Z,6.91
2022-10-30T21:15:56.704Z,6.64
2022-10-30T21:17:18.197Z,6.79
2022-10-30T21:18:39.477Z,6.86
2022-10-30T21:20:00.710Z,6.89
2022-10-30T21:21:25.798Z,7.14
2022-10-30T21:22:47.201Z,6.91
2022-10-30T21:24:09.190Z,7.15
2022-10-30T21:25:31.179Z,5.32
2022-10-30T21:26:52.886Z,7.03
2022-10-30T21:28:17.040Z,7.52
2022-10-30T21:29:38.444Z,7.00
2022-10-30T21:31:04.628Z,7.29
2022-10-30T21:32:25.698Z,6.87
2022-10-30T21:33:46.889Z,7.83
2022-10-30T21:35:08.617Z,7.23
2022-10-30T21:36:29.968Z,6.78
2022-10-30T21:39:03.608Z,6.73
2022-10-30T21:40:25.666Z,7.38
2022-10-30T21:41:46.742Z,7.36
2022-10-30T21:43:08.648Z,6.98
2022-10-30T21:44:30.362Z,6.73
2022-10-30T21:45:51.465Z,7.22
2022-10-30T21:47:13.482Z,7.53
2022-10-30T21:48:34.760Z,7.23
2022-10-30T21:49:56.142Z,7.06
2022-10-30T21:52:38.012Z,7.11
2022-10-30T21:54:00.030Z,7.64
2022-10-30T21:55:21.779Z,6.88
2022-10-30T21:56:45.802Z,7.57
2022-10-30T21:58:08.879Z,6.92
2022-10-30T21:59:33.026Z,7.37
2022-10-30T22:01:02.360Z,7.22
2022-10-30T22:02:23.656Z,7.53
2022-10-30T22:03:44.923Z,7.47
2022-10-30T22:05:07.014Z,7.32
2022-10-30T22:06:29.923Z,7.47
2022-10-30T22:07:51.506Z,7.63
2022-10-30T22:09:16.119Z,7.45
2022-10-30T22:10:37.506Z,7.47
2022-10-30T22:11:58.669Z,7.71
2022-10-30T22:13:19.627Z,7.32
2022-10-30T22:14:40.929Z,7.54
2022-10-30T22:16:08.905Z,8.44
2022-10-30T22:17:32.378Z,8.51
2022-10-30T22:20:14.235Z,9.57
2022-10-30T22:21:35.732Z,9.30
2022-10-30T22:22:59.815Z,8.83
2022-10-30T22:24:20.847Z,8.48
2022-10-30T22:25:43.825Z,7.87
2022-10-30T22:28:28.595Z,7.55
2022-10-30T22:29:49.714Z,7.79
2022-10-30T22:31:12.874Z,7.58
2022-10-30T22:32:34.112Z,7.18
2022-10-30T22:33:58.502Z,7.49
2022-10-30T22:35:19.611Z,7.41
2022-10-30T22:36:41.410Z,7.73
2022-10-30T22:38:04.977Z,7.57
2022-10-30T22:39:26.557Z,8.18
2022-10-30T22:40:48.544Z,7.74
2022-10-30T22:42:10.792Z,7.64
2022-10-30T22:43:33.647Z,8.09
2022-10-30T22:44:54.967Z,7.46
2022-10-30T22:46:17.749Z,7.73
2022-10-30T22:47:39.347Z,7.70
2022-10-30T22:49:00.676Z,7.76
2022-10-30T22:50:22.532Z,7.88